createdAt,value
2023-06-03T00:01:37.487Z,8.32
2023-06-03T00:03:40.433Z,7.43
2023-06-03T00:05:42.968Z,4.10
2023-06-03T00:07:45.105Z,7.32
2023-06-03T00:09:46.873Z,5.97
2023-06-03T00:11:48.723Z,7.45
2023-06-03T00:13:50.713Z,9.05
2023-06-03T00:15:52.560Z,6.78
2023-06-03T00:17:54.391Z,7.70
2023-06-03T00:19:56.170Z,7.75
2023-06-03T00:22:01.261Z,5.43
2023-06-03T00:24:03.246Z,8.45
2023-06-03T00:26:05.302Z,7.45
2023-06-03T00:28:07.213Z,8.25
2023-06-03T00:30:09.202Z,6.60
2023-06-03T00:32:11.119Z,9.88
2023-06-03T00:34:12.957Z,6.20
2023-06-03T00:36:14.908Z,6.53
2023-06-03T00:38:16.778Z,9.18
2023-06-03T00:40:18.729Z,9.63
2023-06-03T00:42:20.641Z,8.38
2023-06-03T00:44:22.435Z,9.10
2023-06-03T00:46:24.934Z,4.68
2023-06-03T00:48:26.849Z,6.55
2023-06-03T00:50:29.246Z,11.02
2023-06-03T00:52:32.145Z,5.22
2023-06-03T00:54:34.659Z,7.45
2023-06-03T00:56:45.449Z,6.20
2023-06-03T00:58:47.515Z,6.97
2023-06-03T01:00:49.424Z,7.50
2023-06-03T01:02:51.922Z,7.03
2023-06-03T01:04:58.375Z,9.90
2023-06-03T01:07:09.142Z,6.65
2023-06-03T01:09:23.104Z,9.52
2023-06-03T01:11:44.011Z,6.72
2023-06-03T01:13:51.845Z,6.07
2023-06-03T01:15:56.561Z,7.88
2023-06-03T01:18:06.985Z,8.70
2023-06-03T01:20:11.416Z,15.23
2023-06-03T01:22:14.330Z,7.45
2023-06-03T01:24:20.328Z,10.95
2023-06-03T01:26:23.260Z,7.93
2023-06-03T01:28:26.664Z,7.00
2023-06-03T01:30:28.676Z,7.00
2023-06-03T01:32:31.720Z,9.45
2023-06-03T01:34:34.614Z,7.90
2023-06-03T01:36:36.892Z,7.07
2023-06-03T01:38:39.437Z,6.88
2023-06-03T01:40:41.808Z,7.32
2023-06-03T01:42:43.906Z,6.90
2023-06-03T01:44:45.941Z,11.60
2023-06-03T01:46:48.339Z,8.18
2023-06-03T01:48:50.967Z,6.68
2023-06-03T01:50:52.919Z,8.60
2023-06-03T01:52:54.855Z,7.05
2023-06-03T01:54:56.832Z,6.72
2023-06-03T01:56:59.073Z,6.97
2023-06-03T01:59:02.023Z,6.32
2023-06-03T02:01:04.187Z,10.25
2023-06-03T02:03:06.249Z,7.25
2023-06-03T02:05:08.478Z,8.07
2023-06-03T02:07:10.304Z,10.00
2023-06-03T02:09:12.273Z,9.57
2023-06-03T02:11:14.323Z,6.80
2023-06-03T02:13:16.251Z,10.57
2023-06-03T02:15:18.144Z,10.60
2023-06-03T02:17:21.713Z,11.40
2023-06-03T02:19:29.189Z,7.50
2023-06-03T02:21:31.072Z,7.57
2023-06-03T02:23:33.142Z,11.13
2023-06-03T02:25:35.423Z,8.00
2023-06-03T02:27:37.283Z,6.15
2023-06-03T02:29:39.117Z,11.88
2023-06-03T02:31:41.083Z,8.35
2023-06-03T02:33:45.166Z,9.60
2023-06-03T02:35:47.114Z,6.22
2023-06-03T02:37:49.147Z,7.43
2023-06-03T02:39:51.139Z,8.38
2023-06-03T02:41:53.022Z,7.28
2023-06-03T02:43:54.951Z,6.93
2023-06-03T02:45:57.170Z,6.68
2023-06-03T02:47:59.167Z,6.93
2023-06-03T02:50:01.044Z,6.25
2023-06-03T02:52:03.072Z,6.63
2023-06-03T02:54:05.263Z,5.07
2023-06-03T02:56:07.211Z,8.77
2023-06-03T02:58:09.077Z,11.05
2023-06-03T03:00:12.280Z,10.70
2023-06-03T03:02:14.120Z,9.70
2023-06-03T03:04:16.308Z,6.72
2023-06-03T03:06:20.992Z,8.10
2023-06-03T03:08:23.867Z,9.82
2023-06-03T03:10:28.649Z,11.35
2023-06-03T03:12:30.801Z,7.97
2023-06-03T03:14:32.596Z,6.00
2023-06-03T03:16:36.627Z,9.85
2023-06-03T03:18:39.580Z,11.73
2023-06-03T03:20:41.464Z,7.53
2023-06-03T03:22:47.638Z,8.38
2023-06-03T03:24:51.509Z,5.43
2023-06-03T03:26:53.376Z,12.75
2023-06-03T03:28:55.416Z,8.70
2023-06-03T03:30:57.449Z,7.68
2023-06-03T03:33:00.555Z,7.63
2023-06-03T03:35:14.847Z,10.15
2023-06-03T03:37:16.659Z,8.82
2023-06-03T03:39:18.488Z,7.97
2023-06-03T03:41:21.286Z,8.23
2023-06-03T03:43:24.476Z,7.20
2023-06-03T03:45:30.207Z,8.15
2023-06-03T03:47:33.356Z,10.60
2023-06-03T03:49:36.722Z,6.82
2023-06-03T03:51:39.163Z,8.75
2023-06-03T03:53:50.600Z,11.25
2023-06-03T03:55:54.607Z,7.53
2023-06-03T03:57:57.184Z,11.40
2023-06-03T03:59:58.987Z,8.40
2023-06-03T04:02:00.936Z,8.52
2023-06-03T04:04:07.060Z,11.80
2023-06-03T04:06:13.507Z,10.20
2023-06-03T04:08:33.620Z,7.43
2023-06-03T04:10:35.587Z,7.93
2023-06-03T04:12:37.621Z,8.77
2023-06-03T04:14:49.809Z,8.52
2023-06-03T04:16:58.891Z,9.73
2023-06-03T04:19:04.148Z,10.23
2023-06-03T04:21:06.878Z,10.85
2023-06-03T04:23:16.079Z,8.10
2023-06-03T04:25:19.870Z,9.23
2023-06-03T04:27:21.712Z,8.30
2023-06-03T04:29:24.258Z,7.28
2023-06-03T04:31:26.156Z,8.43
2023-06-03T04:33:27.982Z,4.70
2023-06-03T04:35:29.829Z,8.55
2023-06-03T04:37:32.287Z,7.55
2023-06-03T04:39:34.485Z,10.07
2023-06-03T04:41:40.043Z,8.63
2023-06-03T04:43:44.505Z,7.13
2023-06-03T04:45:50.471Z,13.40
2023-06-03T04:47:53.901Z,9.07
2023-06-03T04:49:56.428Z,9.23
2023-06-03T04:51:58.236Z,8.13
2023-06-03T04:54:01.968Z,7.63
2023-06-03T04:56:05.106Z,7.53
2023-06-03T04:58:07.069Z,11.93
2023-06-03T05:00:10.861Z,8.68
2023-06-03T05:02:14.581Z,9.57
2023-06-03T05:04:20.809Z,10.65
2023-06-03T05:06:24.535Z,8.07
2023-06-03T05:08:26.361Z,8.57
2023-06-03T05:10:28.486Z,9.52
2023-06-03T05:12:30.783Z,5.88
2023-06-03T05:14:33.460Z,10.07
2023-06-03T05:16:35.517Z,8.15
2023-06-03T05:18:37.490Z,9.32
2023-06-03T05:20:39.388Z,9.60
2023-06-03T05:22:41.382Z,10.25
2023-06-03T05:24:43.672Z,9.27
2023-06-03T05:26:45.579Z,7.65
2023-06-03T05:28:49.614Z,7.15
2023-06-03T05:30:51.440Z,11.20
2023-06-03T05:32:53.434Z,6.93
2023-06-03T05:34:55.737Z,7.80
2023-06-03T05:43:13.098Z,6.90
2023-06-03T05:45:15.342Z,7.28
2023-06-03T05:47:17.189Z,8.18
2023-06-03T05:55:36.111Z,8.77
2023-06-03T05:57:40.544Z,8.07
2023-06-03T05:59:42.589Z,8.48
2023-06-03T06:01:44.672Z,8.80
2023-06-03T06:03:46.543Z,6.95
2023-06-03T06:05:48.549Z,9.93
2023-06-03T06:07:50.405Z,6.63
2023-06-03T06:09:52.194Z,9.40
2023-06-03T06:11:55.511Z,7.40
2023-06-03T06:13:57.404Z,6.73
2023-06-03T06:16:01.858Z,7.78
2023-06-03T06:18:03.931Z,13.27
2023-06-03T06:20:07.704Z,7.07
2023-06-03T06:22:09.685Z,6.70
2023-06-03T06:24:12.135Z,9.07
2023-06-03T06:26:17.457Z,11.35
2023-06-03T06:28:20.677Z,11.82
2023-06-03T06:30:22.986Z,9.40
2023-06-03T06:32:26.555Z,10.10
2023-06-03T06:34:32.526Z,8.25
2023-06-03T06:36:34.323Z,10.18
2023-06-03T06:38:36.918Z,12.32
2023-06-03T06:40:41.293Z,10.00
2023-06-03T06:42:43.249Z,11.65
2023-06-03T06:44:49.660Z,8.93
2023-06-03T06:46:57.131Z,10.07
2023-06-03T06:48:59.091Z,9.05
2023-06-03T06:51:01.314Z,13.57
2023-06-03T06:53:04.455Z,8.35
2023-06-03T06:55:17.910Z,8.90
2023-06-03T06:57:24.259Z,17.48
2023-06-03T06:59:26.354Z,14.30
2023-06-03T07:01:28.153Z,7.80
2023-06-03T07:03:30.355Z,10.65
2023-06-03T07:05:32.252Z,8.50
2023-06-03T07:07:37.119Z,9.32
2023-06-03T07:09:39.344Z,11.00
2023-06-03T07:11:47.652Z,10.45
2023-06-03T07:13:52.845Z,9.82
2023-06-03T07:15:54.927Z,9.07
2023-06-03T07:17:58.415Z,9.05
2023-06-03T07:20:00.358Z,8.68
2023-06-03T07:22:03.041Z,9.23
2023-06-03T07:24:07.228Z,10.77
2023-06-03T07:28:13.864Z,12.13
2023-06-03T07:30:16.890Z,12.27
2023-06-03T07:32:19.556Z,14.80
2023-06-03T07:34:23.808Z,9.85
2023-06-03T07:36:27.761Z,8.32
2023-06-03T07:38:39.131Z,11.50
2023-06-03T07:40:43.047Z,8.43
2023-06-03T07:42:50.121Z,7.05
2023-06-03T07:44:52.299Z,6.57
2023-06-03T07:46:57.915Z,9.85
2023-06-03T07:49:02.191Z,11.50
2023-06-03T07:53:06.846Z,10.85
2023-06-03T07:55:09.288Z,9.63
2023-06-03T07:57:13.633Z,7.32
2023-06-03T07:59:17.106Z,9.55
2023-06-03T08:01:19.445Z,9.48
2023-06-03T08:03:27.023Z,9.48
2023-06-03T08:05:37.270Z,8.32
2023-06-03T08:07:39.268Z,10.25
2023-06-03T08:09:41.574Z,7.70
2023-06-03T08:11:43.368Z,7.93
2023-06-03T08:13:45.522Z,7.60
2023-06-03T08:15:48.906Z,9.63
2023-06-03T08:17:50.834Z,11.38
2023-06-03T08:19:52.833Z,7.70
2023-06-03T08:21:54.726Z,6.03
2023-06-03T08:23:56.978Z,6.75
2023-06-03T08:26:01.362Z,9.68
2023-06-03T08:28:03.354Z,5.60
2023-06-03T08:30:06.187Z,10.35
2023-06-03T08:32:08.465Z,7.53
2023-06-03T08:34:10.900Z,7.03
2023-06-03T08:36:12.972Z,8.18
2023-06-03T08:38:19.323Z,17.77
2023-06-03T08:40:24.612Z,16.30
2023-06-03T08:42:32.120Z,12.95
2023-06-03T08:44:47.864Z,11.23
2023-06-03T08:47:16.632Z,8.80
2023-06-03T08:49:36.498Z,13.45
2023-06-03T08:51:39.385Z,6.75
2023-06-03T08:53:52.039Z,8.82
2023-06-03T08:55:54.887Z,12.90
2023-06-03T08:58:26.183Z,11.52
2023-06-03T09:00:28.652Z,18.52
2023-06-03T09:02:31.816Z,12.73
2023-06-03T09:04:34.222Z,13.88
2023-06-03T09:06:36.644Z,15.43
2023-06-03T09:08:40.955Z,14.93
2023-06-03T09:10:46.382Z,7.28
2023-06-03T09:12:48.884Z,8.15
2023-06-03T09:14:54.881Z,14.00
2023-06-03T09:16:57.089Z,9.40
2023-06-03T09:18:59.052Z,13.32
2023-06-03T09:21:03.043Z,9.25
2023-06-03T09:25:07.710Z,18.85
2023-06-03T09:27:09.686Z,15.65
2023-06-03T09:29:14.990Z,9.70
2023-06-03T09:31:17.504Z,19.80
2023-06-03T09:33:19.348Z,22.45
2023-06-03T09:35:21.373Z,15.80
2023-06-03T09:37:23.267Z,11.82
2023-06-03T09:39:35.633Z,17.45
2023-06-03T09:41:37.900Z,11.35
2023-06-03T09:43:39.857Z,20.88
2023-06-03T09:45:41.804Z,14.45
2023-06-03T09:47:44.013Z,22.25
2023-06-03T09:50:06.042Z,22.33
2023-06-03T09:52:10.789Z,12.18
2023-06-03T09:54:21.840Z,10.43
2023-06-03T09:56:28.266Z,17.73
2023-06-03T09:58:30.499Z,16.17
2023-06-03T10:00:52.869Z,26.45
2023-06-03T10:03:09.255Z,13.10
2023-06-03T10:05:28.770Z,16.25
2023-06-03T10:07:30.882Z,12.07
2023-06-03T10:09:32.674Z,10.93
2023-06-03T10:11:47.693Z,16.38
2023-06-03T10:14:01.996Z,14.77
2023-06-03T10:16:11.045Z,15.55
2023-06-03T10:18:13.455Z,17.52
2023-06-03T10:20:38.030Z,9.95
2023-06-03T10:22:43.497Z,11.05
2023-06-03T10:24:47.513Z,9.60
2023-06-03T10:26:51.237Z,15.30
2023-06-03T10:28:54.109Z,12.02
2023-06-03T10:30:58.976Z,12.18
2023-06-03T10:33:05.814Z,17.92
2023-06-03T10:35:09.667Z,13.73
2023-06-03T10:37:14.611Z,17.00
2023-06-03T10:39:17.393Z,21.73
2023-06-03T10:41:22.132Z,25.80
2023-06-03T10:43:25.776Z,14.15
2023-06-03T10:45:28.875Z,19.70
2023-06-03T10:47:33.092Z,15.20
2023-06-03T10:50:01.890Z,15.02
2023-06-03T10:52:12.645Z,13.82
2023-06-03T10:54:33.269Z,13.65
2023-06-03T10:56:52.440Z,13.02
2023-06-03T10:59:12.454Z,13.30
2023-06-03T11:01:14.557Z,11.13
2023-06-03T11:03:17.970Z,14.80
2023-06-03T11:05:24.472Z,9.50
2023-06-03T11:07:32.356Z,24.25
2023-06-03T11:09:36.177Z,19.20
2023-06-03T11:11:44.517Z,22.92
2023-06-03T11:13:46.502Z,20.10
2023-06-03T11:16:02.527Z,14.75
2023-06-03T11:18:17.773Z,16.58
2023-06-03T11:22:41.842Z,11.85
2023-06-03T11:24:46.660Z,11.20
2023-06-03T11:26:49.733Z,15.40
2023-06-03T11:28:51.706Z,18.30
2023-06-03T11:30:58.606Z,11.75
2023-06-03T11:33:10.819Z,27.63
2023-06-03T11:35:12.672Z,25.10
2023-06-03T11:37:17.093Z,17.35
2023-06-03T11:39:23.484Z,22.08
2023-06-03T11:42:03.738Z,40.72
2023-06-03T11:44:36.109Z,32.38
2023-06-03T11:46:38.279Z,23.73
2023-06-03T11:48:40.442Z,27.65
2023-06-03T11:50:58.348Z,29.50
2023-06-03T11:53:00.851Z,30.85
2023-06-03T11:55:02.678Z,35.70
2023-06-03T11:59:08.187Z,92.00
2023-06-03T12:01:18.920Z,173.05
2023-06-03T12:03:21.388Z,137.38
2023-06-03T12:05:23.454Z,223.38
2023-06-03T12:07:25.534Z,174.65
2023-06-03T12:09:29.820Z,121.47
2023-06-03T12:11:33.929Z,113.38
2023-06-03T12:15:51.612Z,67.63
2023-06-03T12:17:54.294Z,63.28
2023-06-03T12:19:56.584Z,65.35
2023-06-03T12:22:00.243Z,57.15
2023-06-03T12:24:09.270Z,53.30
2023-06-03T12:26:11.194Z,41.45
2023-06-03T12:28:28.925Z,59.05
2023-06-03T12:30:36.804Z,46.50
2023-06-03T12:35:11.495Z,34.03
2023-06-03T12:37:24.141Z,32.72
2023-06-03T12:42:01.401Z,28.58
2023-06-03T12:44:05.121Z,31.70
2023-06-03T12:46:20.241Z,30.42
2023-06-03T12:48:31.988Z,21.38
2023-06-03T12:50:36.278Z,22.30
2023-06-03T12:52:39.192Z,30.70
2023-06-03T12:54:42.188Z,17.58
2023-06-03T12:56:44.811Z,22.52
2023-06-03T12:58:46.718Z,17.27
2023-06-03T13:07:04.336Z,17.90
2023-06-03T13:09:06.388Z,19.48
2023-06-03T13:11:09.305Z,15.48
2023-06-03T13:15:18.490Z,17.75
2023-06-03T13:17:20.873Z,15.93
2023-06-03T13:19:22.873Z,18.10
2023-06-03T13:21:24.776Z,13.18
2023-06-03T13:23:27.084Z,21.00
2023-06-03T13:25:28.960Z,19.75
2023-06-03T13:29:32.949Z,9.35
2023-06-03T13:31:34.928Z,11.98
2023-06-03T13:33:36.940Z,15.82
2023-06-03T13:35:38.958Z,18.88
2023-06-03T13:41:51.528Z,15.77
2023-06-03T13:43:53.351Z,11.25
2023-06-03T13:45:55.629Z,13.05
2023-06-03T13:47:57.731Z,11.85
2023-06-03T13:49:59.649Z,16.38
2023-06-03T13:52:01.597Z,16.40
2023-06-03T13:54:04.645Z,14.90
2023-06-03T13:56:06.857Z,10.52
2023-06-03T13:58:09.573Z,10.57
2023-06-03T14:00:11.638Z,13.77
2023-06-03T14:02:15.019Z,9.98
2023-06-03T14:04:17.051Z,17.25
2023-06-03T14:06:19.186Z,11.13
2023-06-03T14:08:21.746Z,12.35
2023-06-03T14:10:24.366Z,14.95
2023-06-03T14:12:26.390Z,10.65
2023-06-03T14:14:28.259Z,11.68
2023-06-03T14:16:31.186Z,14.35
2023-06-03T14:18:33.138Z,19.80
2023-06-03T14:20:36.237Z,11.57
2023-06-03T14:22:38.189Z,15.00
2023-06-03T14:24:40.338Z,14.02
2023-06-03T14:26:42.215Z,9.90
2023-06-03T14:28:44.269Z,16.02
2023-06-03T14:32:51.175Z,14.38
2023-06-03T14:34:53.138Z,14.68
2023-06-03T14:36:55.057Z,13.82
2023-06-03T14:38:57.097Z,7.53
2023-06-03T14:41:00.590Z,13.40
2023-06-03T14:43:03.008Z,15.50
2023-06-03T14:45:05.591Z,12.80
2023-06-03T14:47:07.601Z,11.35
2023-06-03T14:49:09.463Z,13.10
2023-06-03T14:51:11.442Z,14.45
2023-06-03T14:53:13.521Z,10.35
2023-06-03T14:55:15.526Z,9.43
2023-06-03T14:57:17.520Z,9.88
2023-06-03T14:59:19.534Z,9.23
2023-06-03T15:01:21.757Z,16.10
2023-06-03T15:03:25.349Z,10.15
2023-06-03T15:05:27.305Z,13.13
2023-06-03T15:07:29.316Z,13.82
2023-06-03T15:09:31.434Z,12.95
2023-06-03T15:11:33.516Z,9.57
2023-06-03T15:13:35.334Z,12.15
2023-06-03T15:15:37.321Z,17.35
2023-06-03T15:17:39.459Z,16.42
2023-06-03T15:19:41.479Z,8.13
2023-06-03T15:21:43.898Z,12.85
2023-06-03T15:23:46.787Z,11.48
2023-06-03T15:25:48.892Z,8.77
2023-06-03T15:27:50.940Z,11.07
2023-06-03T15:29:52.801Z,5.90
2023-06-03T15:31:55.242Z,5.53
2023-06-03T15:33:57.257Z,14.90
2023-06-03T15:35:59.104Z,8.77
2023-06-03T15:38:01.165Z,11.07
2023-06-03T15:40:05.652Z,6.22
2023-06-03T15:42:07.745Z,13.07
2023-06-03T15:44:09.621Z,8.90
2023-06-03T15:46:11.502Z,10.07
2023-06-03T15:48:16.048Z,13.93
2023-06-03T15:50:18.191Z,12.70
2023-06-03T15:52:20.212Z,7.22
2023-06-03T15:54:22.166Z,11.93
2023-06-03T15:56:24.039Z,15.75
2023-06-03T15:58:25.905Z,19.50
2023-06-03T16:00:27.976Z,13.82
2023-06-03T16:02:29.832Z,10.65
2023-06-03T16:04:35.911Z,12.45
2023-06-03T16:06:37.779Z,7.93
2023-06-03T16:08:39.833Z,13.00
2023-06-03T16:10:42.217Z,11.30
2023-06-03T16:12:45.054Z,15.55
2023-06-03T16:14:47.164Z,14.90
2023-06-03T16:16:49.012Z,16.40
2023-06-03T16:18:51.105Z,13.07
2023-06-03T16:20:53.184Z,9.10
2023-06-03T16:22:55.307Z,9.40
2023-06-03T16:24:57.822Z,8.18
2023-06-03T16:26:59.788Z,8.48
2023-06-03T16:29:04.747Z,8.40
2023-06-03T16:31:06.823Z,11.10
2023-06-03T16:33:08.843Z,11.10
2023-06-03T16:35:10.900Z,11.00
2023-06-03T16:37:13.281Z,12.98
2023-06-03T16:39:15.153Z,11.27
2023-06-03T16:41:18.568Z,5.95
2023-06-03T16:43:20.990Z,8.32
2023-06-03T16:45:22.889Z,14.00
2023-06-03T16:47:25.179Z,11.85
2023-06-03T16:49:27.212Z,10.90
2023-06-03T16:51:29.728Z,7.45
2023-06-03T16:53:31.522Z,10.85
2023-06-03T16:55:33.367Z,10.60
2023-06-03T16:57:35.673Z,10.10
2023-06-03T16:59:37.567Z,9.07
2023-06-03T17:01:39.380Z,11.23
2023-06-03T17:03:42.055Z,9.93
2023-06-03T17:05:43.950Z,9.98
2023-06-03T17:07:45.998Z,15.77
2023-06-03T17:09:47.869Z,21.42
2023-06-03T17:11:49.652Z,8.52
2023-06-03T17:13:51.473Z,10.82
2023-06-03T17:15:53.451Z,13.57
2023-06-03T17:17:55.667Z,10.38
2023-06-03T17:19:57.677Z,25.40
2023-06-03T17:21:59.570Z,12.57
2023-06-03T17:24:01.911Z,9.50
2023-06-03T17:26:03.721Z,9.30
2023-06-03T17:28:05.982Z,9.82
2023-06-03T17:30:08.609Z,9.18
2023-06-03T17:32:10.588Z,6.40
2023-06-03T17:34:12.440Z,7.78
2023-06-03T17:36:14.582Z,12.95
2023-06-03T17:38:17.270Z,8.55
2023-06-03T17:40:19.911Z,8.88
2023-06-03T17:42:21.755Z,12.27
2023-06-03T17:44:23.759Z,7.50
2023-06-03T17:46:25.661Z,8.57
2023-06-03T17:48:27.877Z,8.57
2023-06-03T17:50:29.939Z,6.10
2023-06-03T17:52:31.894Z,8.40
2023-06-03T17:54:33.739Z,9.13
2023-06-03T17:56:35.597Z,7.55
2023-06-03T17:58:37.559Z,5.20
2023-06-03T18:00:39.561Z,7.07
2023-06-03T18:02:41.686Z,9.43
2023-06-03T18:04:43.694Z,7.07
2023-06-03T18:06:45.687Z,6.43
2023-06-03T18:08:47.581Z,8.30
2023-06-03T18:10:49.502Z,9.25
2023-06-03T18:12:51.497Z,12.05
2023-06-03T18:14:53.820Z,7.57
2023-06-03T18:16:55.810Z,11.55
2023-06-03T18:18:57.984Z,8.73
2023-06-03T18:20:59.943Z,9.82
2023-06-03T18:23:01.817Z,6.80
2023-06-03T18:25:04.560Z,5.93
2023-06-03T18:27:06.635Z,6.43
2023-06-03T18:29:08.917Z,15.90
2023-06-03T18:31:11.043Z,10.50
2023-06-03T18:33:13.021Z,7.68
2023-06-03T18:35:14.909Z,8.68
2023-06-03T18:37:16.997Z,10.85
2023-06-03T18:39:19.009Z,9.32
2023-06-03T18:41:21.100Z,9.82
2023-06-03T18:43:23.158Z,13.75
2023-06-03T18:45:25.159Z,12.70
2023-06-03T18:47:27.087Z,13.85
2023-06-03T18:49:29.077Z,10.82
2023-06-03T18:51:31.306Z,11.77
2023-06-03T18:53:33.268Z,9.20
2023-06-03T18:55:35.195Z,16.70
2023-06-03T18:57:37.050Z,9.27
2023-06-03T18:59:38.847Z,13.30
2023-06-03T19:01:43.134Z,13.30
2023-06-03T19:03:45.133Z,10.77
2023-06-03T19:05:47.173Z,12.02
2023-06-03T19:07:49.219Z,11.13
2023-06-03T19:09:51.124Z,13.43
2023-06-03T19:11:54.559Z,11.10
2023-06-03T19:13:56.738Z,10.93
2023-06-03T19:15:58.694Z,19.73
2023-06-03T19:18:00.596Z,13.63
2023-06-03T19:20:04.551Z,14.50
2023-06-03T19:22:06.921Z,13.32
2023-06-03T19:24:09.078Z,12.88
2023-06-03T19:26:10.843Z,16.23
2023-06-03T19:28:12.850Z,9.15
2023-06-03T19:30:14.954Z,11.80
2023-06-03T19:32:16.754Z,11.02
2023-06-03T19:34:18.633Z,12.05
2023-06-03T19:36:20.700Z,11.40
2023-06-03T19:38:22.839Z,11.25
2023-06-03T19:40:24.877Z,9.23
2023-06-03T19:42:27.627Z,9.45
2023-06-03T19:44:29.560Z,12.52
2023-06-03T19:46:33.874Z,9.25
2023-06-03T19:48:36.211Z,12.18
2023-06-03T19:50:39.367Z,9.35
2023-06-03T19:52:51.566Z,13.10
2023-06-03T19:54:57.240Z,7.90
2023-06-03T19:57:01.052Z,11.00
2023-06-03T19:59:03.144Z,10.20
2023-06-03T20:01:05.392Z,10.90
2023-06-03T20:03:07.432Z,12.30
2023-06-03T20:05:09.592Z,11.48
2023-06-03T20:07:12.756Z,9.50
2023-06-03T20:09:15.034Z,8.25
2023-06-03T20:11:17.893Z,14.40
2023-06-03T20:13:32.746Z,9.55
2023-06-03T20:15:35.437Z,9.15
2023-06-03T20:17:37.256Z,8.48
2023-06-03T20:19:39.121Z,7.55
2023-06-03T20:21:40.905Z,12.70
2023-06-03T20:23:45.619Z,11.35
2023-06-03T20:25:49.115Z,12.68
2023-06-03T20:27:54.351Z,8.57
2023-06-03T20:29:56.294Z,9.93
2023-06-03T20:31:58.178Z,19.23
2023-06-03T20:34:00.730Z,10.60
2023-06-03T20:36:05.557Z,9.32
2023-06-03T20:38:07.914Z,13.27
2023-06-03T20:40:10.664Z,11.35
2023-06-03T20:42:12.980Z,9.20
2023-06-03T20:44:14.931Z,7.13
2023-06-03T20:46:16.917Z,10.55
2023-06-03T20:48:19.019Z,9.57
2023-06-03T20:50:20.987Z,11.48
2023-06-03T20:52:24.138Z,7.70
2023-06-03T20:54:26.413Z,13.77
2023-06-03T20:56:28.385Z,8.38
2023-06-03T20:58:30.425Z,10.82
2023-06-03T21:00:32.307Z,11.27
2023-06-03T21:02:34.306Z,8.75
2023-06-03T21:04:36.432Z,11.02
2023-06-03T21:06:38.229Z,9.07
2023-06-03T21:08:40.154Z,9.25
2023-06-03T21:10:42.057Z,8.52
2023-06-03T21:12:43.993Z,10.70
2023-06-03T21:14:50.782Z,10.68
2023-06-03T21:16:52.644Z,7.00
2023-06-03T21:18:54.478Z,8.70
2023-06-03T21:20:56.932Z,7.80
2023-06-03T21:22:58.902Z,12.40
2023-06-03T21:25:00.944Z,11.55
2023-06-03T21:27:02.813Z,9.60
2023-06-03T21:29:05.554Z,9.35
2023-06-03T21:31:07.571Z,8.90
2023-06-03T21:33:09.585Z,7.85
2023-06-03T21:35:11.606Z,8.50
2023-06-03T21:37:13.493Z,8.02
2023-06-03T21:39:15.460Z,10.70
2023-06-03T21:41:17.491Z,17.75
2023-06-03T21:43:19.736Z,8.50
2023-06-03T21:45:21.783Z,6.07
2023-06-03T21:47:24.353Z,9.75
2023-06-03T21:49:26.304Z,7.03
2023-06-03T21:51:30.136Z,10.15
2023-06-03T21:53:32.086Z,8.90
2023-06-03T21:55:34.400Z,7.68
2023-06-03T21:57:36.266Z,7.35
2023-06-03T21:59:39.465Z,8.68
2023-06-03T22:01:41.372Z,7.47
2023-06-03T22:03:43.366Z,7.35
2023-06-03T22:05:46.223Z,7.68
2023-06-03T22:07:48.005Z,5.78
2023-06-03T22:09:49.835Z,7.47
2023-06-03T22:11:51.676Z,6.22
2023-06-03T22:13:53.732Z,9.10
2023-06-03T22:15:56.039Z,5.65
2023-06-03T22:17:58.230Z,9.38
2023-06-03T22:20:00.317Z,8.48
2023-06-03T22:22:02.141Z,6.55
2023-06-03T22:24:04.507Z,4.90
2023-06-03T22:26:06.718Z,7.30
2023-06-03T22:28:08.555Z,5.97
2023-06-03T22:30:10.758Z,9.18
2023-06-03T22:32:14.806Z,6.57
2023-06-03T22:34:17.011Z,7.82
2023-06-03T22:36:18.985Z,5.35
2023-06-03T22:38:20.923Z,9.30
2023-06-03T22:40:22.817Z,5.78
2023-06-03T22:42:24.643Z,7.55
2023-06-03T22:44:26.454Z,9.60
2023-06-03T22:46:28.467Z,5.57
2023-06-03T22:48:30.523Z,8.73
2023-06-03T22:50:32.445Z,4.53
2023-06-03T22:52:34.549Z,7.18
2023-06-03T22:54:36.874Z,7.10
2023-06-03T22:56:38.801Z,6.15
2023-06-03T22:58:40.660Z,8.38
2023-06-03T23:00:42.550Z,5.85
2023-06-03T23:02:44.413Z,6.93
2023-06-03T23:04:46.358Z,8.25
2023-06-03T23:06:48.377Z,7.78
2023-06-03T23:08:50.372Z,7.25
2023-06-03T23:10:52.238Z,6.32
2023-06-03T23:12:54.086Z,4.55
2023-06-03T23:14:55.903Z,5.78
2023-06-03T23:16:57.730Z,7.32
2023-06-03T23:18:59.858Z,6.75
2023-06-03T23:21:01.721Z,6.13
2023-06-03T23:23:03.569Z,6.38
2023-06-03T23:25:06.064Z,6.55
2023-06-03T23:27:08.024Z,8.27
2023-06-03T23:29:09.796Z,7.40
2023-06-03T23:31:12.730Z,5.88
2023-06-03T23:33:14.943Z,6.55
2023-06-03T23:35:17.034Z,7.10
2023-06-03T23:37:19.390Z,6.88
2023-06-03T23:39:21.383Z,6.85
2023-06-03T23:41:23.276Z,4.60
2023-06-03T23:43:25.364Z,5.68
2023-06-03T23:45:27.455Z,5.28
2023-06-03T23:47:29.378Z,6.47
2023-06-03T23:49:31.215Z,4.32
2023-06-03T23:51:33.149Z,4.55
2023-06-03T23:53:35.162Z,6.43
2023-06-03T23:55:37.037Z,5.35
2023-06-03T23:57:38.822Z,5.25
2023-06-03T23:59:40.743Z,7.53
